createdAt,value
2023-02-12T00:01:28.935Z,3.11
2023-02-12T00:03:56.997Z,3.21
2023-02-12T00:06:24.950Z,3.23
2023-02-12T00:08:54.568Z,3.32
2023-02-12T00:11:26.070Z,3.38
2023-02-12T00:13:56.162Z,3.33
2023-02-12T00:16:27.656Z,3.35
2023-02-12T00:18:56.976Z,3.18
2023-02-12T00:21:25.373Z,3.40
2023-02-12T00:23:52.683Z,3.29
2023-02-12T00:26:21.783Z,3.32
2023-02-12T00:28:51.864Z,3.30
2023-02-12T00:31:26.638Z,3.44
2023-02-12T00:33:57.335Z,3.62
2023-02-12T00:36:27.930Z,3.55
2023-02-12T00:38:56.526Z,3.61
2023-02-12T00:41:25.969Z,3.46
2023-02-12T00:43:53.369Z,3.47
2023-02-12T00:46:20.735Z,3.48
2023-02-12T00:48:48.441Z,3.42
2023-02-12T00:51:15.904Z,3.65
2023-02-12T00:53:43.384Z,3.55
2023-02-12T00:56:10.771Z,3.67
2023-02-12T00:58:38.060Z,3.46
2023-02-12T01:01:07.405Z,3.30
2023-02-12T01:03:36.356Z,3.36
2023-02-12T01:06:03.702Z,3.46
2023-02-12T01:08:30.841Z,3.39
2023-02-12T01:11:02.369Z,3.57
2023-02-12T01:13:31.728Z,3.59
2023-02-12T01:16:14.709Z,3.30
2023-02-12T01:18:42.052Z,3.37
2023-02-12T01:21:19.780Z,3.44
2023-02-12T01:23:48.692Z,3.61
2023-02-12T01:26:18.509Z,3.42
2023-02-12T01:28:50.789Z,3.20
2023-02-12T01:31:22.303Z,3.39
2023-02-12T01:33:54.279Z,3.32
2023-02-12T01:36:22.362Z,3.50
2023-02-12T01:38:50.492Z,3.45
2023-02-12T01:41:26.408Z,3.59
2023-02-12T01:44:21.122Z,3.54
2023-02-12T01:47:00.443Z,3.68
2023-02-12T01:49:37.570Z,3.51
2023-02-12T01:52:27.481Z,3.59
2023-02-12T01:54:59.650Z,3.51
2023-02-12T01:57:31.324Z,3.61
2023-02-12T02:00:00.710Z,3.58
2023-02-12T02:02:28.923Z,3.66
2023-02-12T02:05:03.978Z,3.75
2023-02-12T02:07:31.583Z,3.57
2023-02-12T02:10:00.143Z,3.60
2023-02-12T02:12:49.298Z,3.67
2023-02-12T02:15:17.725Z,3.75
2023-02-12T02:18:16.335Z,3.93
2023-02-12T02:21:11.357Z,3.73
2023-02-12T02:24:16.153Z,3.85
2023-02-12T02:26:55.218Z,3.70
2023-02-12T02:30:10.045Z,3.85
2023-02-12T02:32:55.169Z,3.89
2023-02-12T02:35:42.519Z,3.76
2023-02-12T02:38:37.730Z,4.02
2023-02-12T02:41:29.316Z,3.86
2023-02-12T02:43:56.819Z,3.93
2023-02-12T02:46:35.311Z,3.72
2023-02-12T02:49:10.991Z,3.81
2023-02-12T02:51:45.703Z,4.02
2023-02-12T02:54:33.676Z,3.81
2023-02-12T02:57:26.557Z,3.95
2023-02-12T03:00:17.664Z,3.78
2023-02-12T03:03:00.635Z,3.51
2023-02-12T03:05:35.351Z,3.91
2023-02-12T03:08:35.061Z,3.94
2023-02-12T03:11:28.061Z,3.87
2023-02-12T03:14:28.528Z,4.00
2023-02-12T03:17:24.944Z,4.00
2023-02-12T03:20:08.052Z,3.89
2023-02-12T03:22:40.112Z,4.01
2023-02-12T03:25:15.146Z,3.86
2023-02-12T03:28:08.999Z,3.85
2023-02-12T03:30:53.548Z,4.01
2023-02-12T03:33:53.306Z,3.93
2023-02-12T03:36:38.558Z,3.77
2023-02-12T03:39:50.968Z,3.89
2023-02-12T03:43:06.990Z,4.01
2023-02-12T03:46:02.592Z,3.90
2023-02-12T03:48:38.682Z,3.98
2023-02-12T03:51:23.664Z,3.98
2023-02-12T03:53:51.496Z,3.99
2023-02-12T03:56:33.130Z,4.18
2023-02-12T03:59:00.731Z,4.15
2023-02-12T04:01:28.865Z,4.16
2023-02-12T04:03:56.719Z,4.13
2023-02-12T04:06:28.852Z,4.14
2023-02-12T04:09:01.427Z,4.10
2023-02-12T04:11:40.364Z,4.09
2023-02-12T04:15:00.524Z,4.19
2023-02-12T04:18:00.036Z,4.16
2023-02-12T04:20:48.116Z,4.00
2023-02-12T04:24:00.616Z,4.23
2023-02-12T04:26:38.018Z,4.04
2023-02-12T04:29:26.275Z,4.15
2023-02-12T04:32:04.087Z,4.23
2023-02-12T04:34:49.401Z,4.26
2023-02-12T04:37:34.905Z,4.20
2023-02-12T04:40:07.414Z,4.20
2023-02-12T04:42:49.445Z,4.17
2023-02-12T04:45:30.417Z,4.21
2023-02-12T04:47:57.861Z,4.05
2023-02-12T04:50:25.931Z,4.19
2023-02-12T04:52:53.276Z,4.15
2023-02-12T04:55:20.504Z,4.25
2023-02-12T04:57:48.494Z,4.29
2023-02-12T05:00:16.669Z,4.17
2023-02-12T05:02:43.889Z,4.20
2023-02-12T05:05:11.627Z,4.05
2023-02-12T05:07:38.957Z,4.14
2023-02-12T05:10:07.201Z,4.10
2023-02-12T05:12:34.471Z,4.00
2023-02-12T05:15:01.802Z,4.08
2023-02-12T05:17:29.103Z,3.98
2023-02-12T05:19:56.319Z,4.05
2023-02-12T05:22:23.624Z,3.92
2023-02-12T05:24:50.847Z,4.00
2023-02-12T05:27:18.108Z,4.17
2023-02-12T05:29:45.263Z,4.10
2023-02-12T05:32:12.564Z,4.21
2023-02-12T05:34:39.944Z,4.31
2023-02-12T05:37:07.139Z,4.42
2023-02-12T05:39:34.514Z,4.31
2023-02-12T05:42:01.692Z,4.32
2023-02-12T05:44:28.978Z,4.31
2023-02-12T05:46:56.105Z,4.30
2023-02-12T05:49:23.392Z,4.32
2023-02-12T05:51:50.947Z,4.34
2023-02-12T05:54:18.264Z,4.32
2023-02-12T05:56:48.099Z,4.27
2023-02-12T05:59:22.904Z,4.31
2023-02-12T06:01:52.241Z,4.33
2023-02-12T06:04:27.789Z,4.30
2023-02-12T06:06:56.564Z,4.36
2023-02-12T06:09:24.676Z,4.41
2023-02-12T06:11:52.281Z,4.41
2023-02-12T06:14:21.502Z,4.44
2023-02-12T06:16:51.211Z,4.55
2023-02-12T06:19:20.231Z,4.56
2023-02-12T06:21:48.169Z,4.50
2023-02-12T06:24:17.741Z,4.57
2023-02-12T06:26:45.366Z,4.59
2023-02-12T06:29:13.401Z,4.62
2023-02-12T06:31:41.135Z,4.43
2023-02-12T06:34:11.592Z,4.44
2023-02-12T06:36:42.562Z,4.48
2023-02-12T06:39:11.604Z,4.41
2023-02-12T06:41:39.000Z,4.43
2023-02-12T06:44:33.069Z,4.62
2023-02-12T06:47:00.499Z,4.68
2023-02-12T06:49:52.872Z,4.77
2023-02-12T06:52:21.286Z,4.73
2023-02-12T06:54:48.764Z,4.62
2023-02-12T07:00:56.969Z,4.65
2023-02-12T07:03:24.439Z,4.71
2023-02-12T07:05:51.710Z,4.77
2023-02-12T07:08:18.983Z,4.65
2023-02-12T07:10:50.187Z,4.67
2023-02-12T07:13:17.506Z,4.82
2023-02-12T07:15:44.663Z,4.84
2023-02-12T07:18:11.945Z,4.83
2023-02-12T07:20:39.218Z,4.87
2023-02-12T07:23:06.632Z,4.75
2023-02-12T07:25:33.880Z,4.84
2023-02-12T07:28:01.219Z,5.03
2023-02-12T07:30:28.560Z,5.12
2023-02-12T07:32:55.956Z,5.18
2023-02-12T07:35:23.241Z,5.25
2023-02-12T07:41:10.618Z,5.27
2023-02-12T07:43:42.386Z,5.29
2023-02-12T07:49:18.982Z,5.24
2023-02-12T07:51:47.381Z,5.10
2023-02-12T07:54:14.948Z,5.18
2023-02-12T07:56:47.127Z,5.46
2023-02-12T07:59:18.234Z,5.54
2023-02-12T08:01:52.549Z,5.42
2023-02-12T08:04:23.354Z,5.37
2023-02-12T08:06:54.253Z,5.37
2023-02-12T08:09:26.176Z,5.47
2023-02-12T08:11:55.032Z,5.87
2023-02-12T08:14:23.197Z,6.16
2023-02-12T08:16:51.408Z,6.61
2023-02-12T08:19:23.304Z,7.33
2023-02-12T08:21:54.854Z,8.05
2023-02-12T08:24:27.975Z,9.38
2023-02-12T08:26:56.110Z,10.23
2023-02-12T08:29:30.925Z,10.77
2023-02-12T08:32:04.127Z,10.00
2023-02-12T08:34:35.768Z,9.55
2023-02-12T08:37:06.795Z,8.52
2023-02-12T08:39:34.698Z,7.59
2023-02-12T08:42:02.506Z,7.50
2023-02-12T08:44:30.165Z,7.65
2023-02-12T08:46:57.798Z,8.63
2023-02-12T08:49:28.548Z,8.50
2023-02-12T08:51:57.685Z,8.54
2023-02-12T08:54:29.237Z,8.10
2023-02-12T08:56:59.021Z,8.36
2023-02-12T08:59:26.882Z,9.71
2023-02-12T09:01:55.210Z,10.05
2023-02-12T09:04:26.991Z,9.99
2023-02-12T09:06:54.522Z,11.86
2023-02-12T09:09:22.492Z,12.44
2023-02-12T09:11:49.869Z,11.46
2023-02-12T09:14:19.083Z,10.24
2023-02-12T09:16:46.441Z,9.40
2023-02-12T09:19:15.190Z,9.10
2023-02-12T09:21:42.679Z,8.67
2023-02-12T09:24:10.501Z,8.50
2023-02-12T09:26:39.564Z,8.04
2023-02-12T09:29:06.857Z,7.82
2023-02-12T09:31:34.325Z,7.45
2023-02-12T09:34:05.479Z,7.14
2023-02-12T09:36:34.474Z,7.09
2023-02-12T09:39:01.798Z,7.22
2023-02-12T09:41:53.453Z,7.82
2023-02-12T09:44:51.613Z,10.37
2023-02-12T09:47:33.761Z,12.86
2023-02-12T09:50:28.830Z,10.75
2023-02-12T09:52:59.151Z,9.59
2023-02-12T09:55:31.609Z,9.39
2023-02-12T09:58:04.054Z,9.07
2023-02-12T10:00:33.033Z,9.09
2023-02-12T10:03:11.556Z,9.56
2023-02-12T10:05:47.338Z,9.95
2023-02-12T10:08:37.344Z,9.99
2023-02-12T10:11:42.756Z,10.85
2023-02-12T10:14:32.934Z,11.66
2023-02-12T10:17:31.084Z,11.16
2023-02-12T10:20:29.370Z,11.66
2023-02-12T10:23:33.281Z,11.26
2023-02-12T10:26:17.836Z,11.97
2023-02-12T10:28:45.303Z,14.17
2023-02-12T10:31:36.840Z,15.86
2023-02-12T10:34:27.121Z,17.64
2023-02-12T10:37:10.295Z,16.92
2023-02-12T10:39:46.451Z,13.06
2023-02-12T10:42:36.946Z,12.66
2023-02-12T10:45:05.201Z,13.33
2023-02-12T10:47:32.693Z,13.69
2023-02-12T10:50:14.943Z,13.35
2023-02-12T10:52:57.232Z,11.52
2023-02-12T10:55:32.453Z,10.34
2023-02-12T10:58:02.860Z,10.72
2023-02-12T11:00:36.457Z,10.00
2023-02-12T11:03:12.728Z,9.71
2023-02-12T11:05:43.767Z,12.18
2023-02-12T11:08:38.844Z,13.54
2023-02-12T11:11:20.771Z,12.30
2023-02-12T11:14:03.504Z,10.31
2023-02-12T11:16:40.838Z,9.78
2023-02-12T11:19:24.503Z,11.56
2023-02-12T11:22:04.500Z,11.53
2023-02-12T11:24:35.541Z,11.62
2023-02-12T11:27:31.090Z,14.70
2023-02-12T11:30:10.580Z,13.73
2023-02-12T11:32:38.141Z,12.66
2023-02-12T11:35:27.042Z,11.70
2023-02-12T11:38:04.135Z,10.84
2023-02-12T11:40:36.441Z,9.41
2023-02-12T11:43:09.655Z,8.92
2023-02-12T11:45:49.900Z,8.79
2023-02-12T11:48:33.580Z,8.49
2023-02-12T11:51:06.639Z,8.11
2023-02-12T11:53:47.411Z,7.71
2023-02-12T11:56:15.409Z,8.49
2023-02-12T11:58:42.707Z,9.09
2023-02-12T12:01:30.238Z,9.01
2023-02-12T12:04:19.490Z,8.73
2023-02-12T12:07:13.630Z,8.48
2023-02-12T12:10:00.328Z,7.96
2023-02-12T12:12:46.157Z,8.35
2023-02-12T12:15:36.412Z,8.87
2023-02-12T12:19:01.495Z,8.76
2023-02-12T12:21:53.430Z,8.92
2023-02-12T12:25:00.829Z,9.42
2023-02-12T12:28:05.562Z,8.66
2023-02-12T12:30:58.063Z,9.07
2023-02-12T12:33:39.281Z,8.57
2023-02-12T12:36:36.804Z,10.43
2023-02-12T12:39:28.539Z,12.49
2023-02-12T12:42:32.690Z,10.84
2023-02-12T12:45:27.131Z,10.05
2023-02-12T12:48:04.365Z,9.12
2023-02-12T12:50:49.508Z,8.86
2023-02-12T12:53:56.225Z,8.50
2023-02-12T12:56:38.016Z,8.57
2023-02-12T12:59:34.685Z,8.48
2023-02-12T13:02:32.866Z,8.36
2023-02-12T13:05:18.590Z,8.30
2023-02-12T13:08:40.083Z,9.11
2023-02-12T13:11:41.736Z,8.52
2023-02-12T13:15:08.312Z,9.29
2023-02-12T13:17:46.089Z,9.50
2023-02-12T13:20:39.774Z,9.74
2023-02-12T13:23:43.376Z,9.36
2023-02-12T13:26:49.310Z,8.64
2023-02-12T13:29:45.820Z,8.13
2023-02-12T13:32:50.881Z,7.83
2023-02-12T13:35:25.117Z,7.04
2023-02-12T13:37:55.214Z,6.73
2023-02-12T13:40:26.439Z,6.71
2023-02-12T13:43:15.023Z,6.73
2023-02-12T13:46:01.433Z,6.57
2023-02-12T13:49:02.415Z,6.99
2023-02-12T13:51:50.576Z,7.42
2023-02-12T13:55:05.238Z,7.52
2023-02-12T13:57:32.487Z,7.65
2023-02-12T14:00:00.651Z,7.64
2023-02-12T14:02:38.299Z,7.34
2023-02-12T14:05:36.608Z,7.14
2023-02-12T14:08:06.569Z,7.18
2023-02-12T14:11:07.410Z,7.06
2023-02-12T14:13:46.066Z,7.01
2023-02-12T14:16:40.366Z,6.81
2023-02-12T14:19:51.201Z,6.81
2023-02-12T14:22:27.236Z,6.64
2023-02-12T14:25:00.834Z,6.58
2023-02-12T14:27:52.145Z,6.63
2023-02-12T14:30:40.158Z,6.42
2023-02-12T14:33:07.547Z,6.00
2023-02-12T14:35:42.739Z,6.00
2023-02-12T14:38:12.892Z,6.22
2023-02-12T14:40:47.362Z,6.31
2023-02-12T14:43:57.115Z,6.30
2023-02-12T14:46:24.236Z,6.15
2023-02-12T14:49:05.700Z,6.08
2023-02-12T14:51:52.422Z,5.95
2023-02-12T14:54:42.894Z,5.91
2023-02-12T14:57:38.773Z,5.84
2023-02-12T15:00:46.852Z,5.81
2023-02-12T15:03:13.907Z,5.88
2023-02-12T15:05:59.602Z,6.07
2023-02-12T15:08:37.275Z,6.03
2023-02-12T15:11:22.001Z,5.94
2023-02-12T15:14:04.297Z,5.66
2023-02-12T15:16:43.055Z,5.21
2023-02-12T15:19:57.412Z,5.20
2023-02-12T15:22:35.685Z,5.24
2023-02-12T15:25:18.051Z,5.13
2023-02-12T15:27:48.974Z,5.30
2023-02-12T15:30:28.721Z,5.33
2023-02-12T15:32:58.434Z,5.23
2023-02-12T15:35:34.534Z,5.20
2023-02-12T15:38:02.344Z,5.16
2023-02-12T15:40:31.835Z,4.92
2023-02-12T15:43:05.686Z,4.92
2023-02-12T15:45:36.798Z,4.90
2023-02-12T15:48:10.397Z,4.87
2023-02-12T15:51:25.077Z,4.89
2023-02-12T15:53:53.092Z,4.72
2023-02-12T15:56:24.627Z,4.70
2023-02-12T15:59:01.713Z,4.64
2023-02-12T16:01:33.688Z,4.62
2023-02-12T16:04:06.356Z,4.70
2023-02-12T16:06:39.204Z,4.68
2023-02-12T16:09:31.731Z,4.62
2023-02-12T16:12:05.508Z,4.57
2023-02-12T16:14:44.764Z,4.55
2023-02-12T16:17:35.137Z,4.54
2023-02-12T16:20:15.596Z,4.54
2023-02-12T16:22:46.926Z,4.54
2023-02-12T16:25:33.668Z,4.31
2023-02-12T16:28:02.893Z,4.27
2023-02-12T16:30:43.056Z,4.14
2023-02-12T16:33:39.001Z,4.02
2023-02-12T16:36:21.540Z,3.89
2023-02-12T16:39:02.744Z,3.80
2023-02-12T16:41:34.115Z,3.69
2023-02-12T16:44:01.328Z,3.54
2023-02-12T16:46:32.014Z,3.38
2023-02-12T16:49:02.361Z,3.36
2023-02-12T16:51:36.544Z,3.28
2023-02-12T16:54:24.106Z,3.23
2023-02-12T16:56:51.799Z,3.13
2023-02-12T16:59:19.108Z,3.04
2023-02-12T17:02:09.938Z,2.94
2023-02-12T17:04:37.232Z,2.99
2023-02-12T17:07:10.211Z,3.01
2023-02-12T17:09:37.691Z,2.97
2023-02-12T17:12:05.394Z,2.94
2023-02-12T17:14:32.633Z,2.89
2023-02-12T17:17:00.185Z,2.83
2023-02-12T17:19:27.450Z,2.76
2023-02-12T17:21:54.858Z,2.58
2023-02-12T17:24:27.037Z,2.55
2023-02-12T17:26:55.139Z,2.51
2023-02-12T17:29:25.220Z,2.45
2023-02-12T17:31:56.452Z,2.29
2023-02-12T17:34:24.756Z,2.18
2023-02-12T17:36:53.094Z,2.16
2023-02-12T17:39:21.173Z,2.09
2023-02-12T17:41:48.979Z,2.14
2023-02-12T17:44:16.388Z,2.14
2023-02-12T17:46:43.975Z,2.09
2023-02-12T17:49:11.356Z,2.08
2023-02-12T17:51:39.224Z,1.99
2023-02-12T17:54:06.815Z,1.96
2023-02-12T17:56:34.118Z,1.96
2023-02-12T17:59:01.956Z,2.02
2023-02-12T18:01:29.322Z,2.11
2023-02-12T18:03:58.909Z,2.26
2023-02-12T18:06:31.080Z,2.40
2023-02-12T18:09:01.759Z,2.57
2023-02-12T18:11:29.837Z,2.56
2023-02-12T18:13:59.055Z,2.45
2023-02-12T18:16:29.926Z,2.74
2023-02-12T18:18:57.817Z,2.70
2023-02-12T18:21:25.321Z,2.73
2023-02-12T18:23:54.497Z,2.78
2023-02-12T18:26:23.068Z,2.86
2023-02-12T18:28:50.750Z,2.91
2023-02-12T18:31:20.242Z,2.74
2023-02-12T18:33:48.734Z,2.75
2023-02-12T18:36:19.208Z,2.85
2023-02-12T18:38:49.476Z,2.91
2023-02-12T18:41:26.052Z,2.85
2023-02-12T18:43:53.771Z,3.01
2023-02-12T18:46:27.976Z,3.18
2023-02-12T18:48:56.530Z,3.23
2023-02-12T18:51:28.471Z,3.26
2023-02-12T18:54:03.183Z,3.37
2023-02-12T18:56:41.039Z,3.38
2023-02-12T18:59:08.728Z,3.23
2023-02-12T19:01:38.181Z,2.92
2023-02-12T19:04:08.323Z,2.87
2023-02-12T19:06:42.312Z,2.91
2023-02-12T19:09:11.263Z,2.77
2023-02-12T19:11:38.544Z,2.60
2023-02-12T19:14:06.236Z,2.59
2023-02-12T19:16:33.822Z,2.72
2023-02-12T19:19:02.842Z,2.77
2023-02-12T19:21:30.899Z,2.85
2023-02-12T19:24:00.799Z,2.83
2023-02-12T19:26:31.072Z,2.84
2023-02-12T19:28:59.683Z,2.71
2023-02-12T19:31:34.961Z,2.62
2023-02-12T19:34:09.239Z,2.54
2023-02-12T19:36:37.740Z,2.43
2023-02-12T19:39:06.202Z,2.30
2023-02-12T19:41:41.085Z,2.16
2023-02-12T19:44:24.288Z,1.96
2023-02-12T19:46:52.161Z,1.85
2023-02-12T19:49:23.738Z,1.77
2023-02-12T19:51:51.659Z,1.68
2023-02-12T19:54:21.666Z,1.66
2023-02-12T19:56:49.463Z,1.56
2023-02-12T19:59:20.047Z,1.52
2023-02-12T20:01:48.522Z,1.49
2023-02-12T20:04:20.559Z,1.43
2023-02-12T20:06:51.390Z,1.39
2023-02-12T20:09:20.394Z,1.33
2023-02-12T20:11:47.689Z,1.37
2023-02-12T20:14:15.744Z,1.30
2023-02-12T20:16:46.694Z,1.31
2023-02-12T20:19:29.618Z,1.25
2023-02-12T20:22:01.688Z,1.12
2023-02-12T20:24:32.955Z,1.11
2023-02-12T20:27:02.680Z,1.16
2023-02-12T20:29:30.432Z,1.21
2023-02-12T20:31:57.958Z,1.37
2023-02-12T20:34:25.427Z,1.50
2023-02-12T20:36:53.959Z,1.62
2023-02-12T20:39:21.688Z,1.68
2023-02-12T20:41:50.200Z,1.67
2023-02-12T20:44:21.510Z,1.73
2023-02-12T20:46:55.646Z,1.66
2023-02-12T20:49:25.513Z,1.58
2023-02-12T20:51:53.108Z,1.50
2023-02-12T20:54:20.465Z,1.52
2023-02-12T20:56:50.675Z,1.67
2023-02-12T20:59:18.639Z,1.80
2023-02-12T21:01:47.019Z,1.87
2023-02-12T21:04:17.915Z,2.04
2023-02-12T21:06:45.942Z,2.13
2023-02-12T21:09:14.842Z,2.14
2023-02-12T21:11:45.648Z,2.15
2023-02-12T21:14:23.567Z,2.00
2023-02-12T21:16:55.936Z,2.08
2023-02-12T21:19:24.337Z,2.06
2023-02-12T21:21:52.033Z,2.06
2023-02-12T21:24:24.357Z,2.05
2023-02-12T21:26:54.344Z,1.96
2023-02-12T21:29:23.353Z,1.95
2023-02-12T21:31:51.697Z,1.96
2023-02-12T21:34:23.185Z,1.94
2023-02-12T21:36:53.393Z,1.91
2023-02-12T21:39:27.741Z,1.90
2023-02-12T21:42:00.139Z,1.77
2023-02-12T21:44:28.592Z,1.65
2023-02-12T21:46:57.148Z,1.52
2023-02-12T21:49:25.219Z,1.40
2023-02-12T21:52:04.515Z,1.49
2023-02-12T21:54:32.630Z,1.52
2023-02-12T21:57:00.402Z,1.57
2023-02-12T21:59:31.733Z,1.70
2023-02-12T22:02:00.720Z,1.76
2023-02-12T22:04:29.008Z,1.75
2023-02-12T22:06:58.063Z,1.84
2023-02-12T22:09:25.435Z,1.99
2023-02-12T22:11:53.280Z,2.14
2023-02-12T22:14:22.102Z,2.24
2023-02-12T22:16:49.592Z,2.30
2023-02-12T22:19:17.521Z,2.32
2023-02-12T22:21:45.529Z,2.34
2023-02-12T22:24:15.888Z,2.38
2023-02-12T22:26:44.408Z,2.36
2023-02-12T22:29:14.766Z,2.39
2023-02-12T22:31:44.796Z,2.33
2023-02-12T22:34:16.770Z,2.31
2023-02-12T22:36:45.135Z,2.33
2023-02-12T22:39:13.928Z,2.41
2023-02-12T22:41:44.764Z,2.46
2023-02-12T22:44:12.881Z,2.44
2023-02-12T22:46:42.338Z,2.38
2023-02-12T22:49:09.744Z,2.35
2023-02-12T22:51:39.574Z,2.43
2023-02-12T22:54:12.244Z,2.42
2023-02-12T22:56:39.691Z,2.44
2023-02-12T22:59:07.094Z,2.47
2023-02-12T23:01:34.416Z,2.54
2023-02-12T23:04:01.778Z,2.44
2023-02-12T23:06:31.162Z,2.38
2023-02-12T23:09:05.093Z,2.36
2023-02-12T23:11:34.109Z,2.31
2023-02-12T23:14:01.444Z,2.23
2023-02-12T23:16:29.246Z,2.20
2023-02-12T23:18:58.875Z,2.18
2023-02-12T23:21:28.137Z,2.16
2023-02-12T23:23:56.204Z,2.06
2023-02-12T23:26:23.787Z,2.08
2023-02-12T23:28:51.509Z,2.07
2023-02-12T23:31:20.250Z,2.16
2023-02-12T23:33:47.794Z,2.12
2023-02-12T23:36:15.668Z,2.23
2023-02-12T23:38:42.898Z,2.29
2023-02-12T23:41:10.091Z,2.22
2023-02-12T23:43:37.305Z,2.22
2023-02-12T23:46:04.729Z,2.20
2023-02-12T23:48:31.902Z,2.19
2023-02-12T23:50:59.615Z,2.27
2023-02-12T23:53:26.904Z,2.28
2023-02-12T23:55:54.131Z,2.24
2023-02-12T23:58:21.304Z,2.22
